Latest Weather Observations for Swan Hill

IDN60801

Issued at 8:05 pm EST Thursday 2 October 2014 (issued every 30 minutes, with the page automatically refreshed every 10 minutes)

About weather observations | Map of weather stations | Latest weather observations for NSW | Other Formats
Station Details ID: 077094 Name: SWAN HILL AERODROME Lat: -35.38 Lon: 143.54 Height: 71.0 m
Data from the previous 72 hours. | See also: Recent months at Swan Hill
Date/Time
EST
Temp
°C
App
Temp
°C
Dew
Point
Rel
Hum
%
Delta-T
°C
Wind Press
QNH
hPa
Press
MSL
hPa
Rain
since 9 am
mm
Dir
 
Spd
km/h
Gust
km/h
Spd
kts
Gust
kts
02/08:00pm 12.1 8.8 4.6 60 3.4 SSW 11 13 6 7 1023.2 - 0.0
02/07:30pm 13.1 10.7 5.4 59 3.6 SSW 7 9 4 5 1023.0 - 0.0
02/07:00pm 15.4 12.5 4.7 49 5.0 SSW 9 11 5 6 1022.8 - 0.0
02/06:30pm 17.2 14.3 4.5 43 6.0 SSW 9 15 5 8 1022.5 - 0.0
02/06:00pm 19.3 15.4 3.3 34 7.5 SSW 13 17 7 9 1022.5 1022.5 0.0
02/05:30pm 20.1 15.2 1.7 29 8.4 SSW 17 28 9 15 1022.4 - 0.0
02/05:00pm 20.5 15.7 2.5 30 8.4 SSW 17 26 9 14 1022.3 - 0.0
02/04:30pm 21.1 16.3 2.5 29 8.7 SSW 17 28 9 15 1022.3 - 0.0
02/04:00pm 21.3 16.5 2.5 29 8.8 SSW 17 28 9 15 1022.4 - 0.0
02/03:30pm 20.6 15.3 1.9 29 8.6 SW 19 28 10 15 1022.6 - 0.0
02/03:00pm 20.5 15.2 2.1 29 8.5 SSW 19 30 10 16 1022.9 1022.9 0.0
02/02:30pm 20.1 14.8 1.7 29 8.4 SSW 19 24 10 13 1023.3 - 0.0
02/02:00pm 20.0 14.4 1.5 29 8.4 SW 20 32 11 17 1023.5 - 0.0
02/01:30pm 19.7 14.4 2.0 30 8.1 SSW 19 30 10 16 1024.0 - 0.0
02/01:00pm 18.6 13.3 2.1 33 7.5 SW 19 28 10 15 1024.5 - 0.0
02/12:30pm 17.8 12.0 2.1 35 7.1 SW 22 35 12 19 1024.8 - 0.0
02/12:00pm 17.6 12.4 2.4 36 6.9 SW 19 28 10 15 1025.2 1025.2 0.0
02/11:00am 16.1 10.9 3.7 43 5.7 SW 20 30 11 16 1026.0 - 0.0
02/10:30am 15.4 10.4 3.6 45 5.4 SW 19 28 10 15 1026.4 - 0.0
02/10:00am 14.7 11.0 4.3 49 4.8 SSW 13 24 7 13 1026.7 - 0.0
02/09:30am 13.5 9.0 4.3 53 4.2 SSW 17 26 9 14 1026.7 - 0.0
02/09:00am 13.1 8.7 4.6 56 3.9 SSW 17 24 9 13 1026.7 1026.8 0.0
02/08:30am 12.7 7.9 4.6 58 3.7 S 19 28 10 15 1026.7 - -
02/08:00am 11.2 7.5 4.3 62 3.1 SSW 13 17 7 9 1026.6 - -
02/07:30am 8.8 6.2 4.2 73 2.0 S 7 11 4 6 1026.5 - -
02/07:00am 5.9 2.7 3.0 82 1.2 S 9 11 5 6 1026.4 - -
02/06:30am 4.2 0.8 1.9 85 0.9 S 9 11 5 6 1026.3 - -
02/06:00am 4.2 0.8 1.6 83 1.0 S 9 11 5 6 1026.0 1026.0 -
02/05:30am 4.1 0.6 1.5 83 1.0 S 9 11 5 6 1026.0 - -
02/05:00am 3.5 0.4 1.2 85 0.9 S 7 9 4 5 1025.7 - -
02/04:30am 2.1 0.2 0.5 89 0.6 CALM 0 6 0 3 1025.7 - -
02/04:00am 3.3 1.1 1.2 86 0.8 S 2 7 1 4 1025.4 - -
02/03:30am 3.3 1.5 1.5 88 0.7 CALM 0 0 0 0 1025.4 - -
02/03:00am 4.7 2.0 2.5 86 0.9 S 6 7 3 4 1025.3 1025.3 0.0
02/02:30am 4.2 2.1 1.9 85 0.9 S 2 6 1 3 1025.6 - -
02/02:00am 5.1 3.5 2.4 83 1.1 CALM 0 0 0 0 1025.6 - -
02/01:30am 5.9 3.0 2.5 79 1.4 S 7 9 4 5 1025.9 - -
02/01:00am 6.7 4.4 2.6 75 1.7 S 4 7 2 4 1026.1 - -
02/12:30am 7.0 3.7 2.7 74 1.8 S 9 11 5 6 1026.1 - -
02/12:00am 8.0 4.7 2.5 68 2.3 S 9 13 5 7 1026.1 1026.1 -
 
Date/Time
EST
Temp
°C
App
Temp
°C
Dew
Point
Rel
Hum
%
Delta-T
°C
Wind Press
QNH
hPa
Press
MSL
hPa
Rain
since 9 am
mm
Dir
 
Spd
km/h
Gust
km/h
Spd
kts
Gust
kts
01/11:30pm 8.5 4.7 2.0 63 2.7 SSW 11 15 6 8 1026.1 - -
01/11:00pm 9.0 5.2 1.7 60 3.0 SSW 11 17 6 9 1026.1 - -
01/10:30pm 9.2 5.3 1.4 58 3.2 S 11 15 6 8 1026.1 - -
01/10:00pm 10.0 6.1 1.3 54 3.6 SSW 11 15 6 8 1025.9 - -
01/09:30pm 10.1 5.8 0.8 52 3.8 SSW 13 17 7 9 1025.8 - -
01/09:00pm 10.5 6.9 0.7 50 4.0 SSW 9 13 5 7 1025.8 1025.8 0.0
01/08:30pm 11.2 7.2 0.5 47 4.4 SSW 11 13 6 7 1025.5 - -
01/08:00pm 11.5 7.9 0.6 47 4.5 SSW 9 13 5 7 1025.3 - -
01/07:30pm 12.4 8.8 0.3 43 5.0 SSW 9 11 5 6 1025.1 - -
01/07:00pm 13.5 9.8 0.0 39 5.6 SSW 9 13 5 7 1024.7 - -
01/06:30pm 14.8 10.6 -0.6 35 6.4 SSW 11 15 6 8 1024.4 - -
01/06:00pm 16.4 11.3 -1.9 28 7.5 SSW 15 24 8 13 1024.3 1024.3 -
01/05:30pm 17.3 12.2 -2.1 26 8.0 S 15 24 8 13 1024.0 - -
01/05:00pm 17.6 11.4 -3.2 24 8.4 SSW 20 28 11 15 1024.0 - -
01/04:30pm 18.0 11.8 -2.8 24 8.5 SSW 20 28 11 15 1024.0 - -
01/04:00pm 18.0 11.8 -2.8 24 8.5 SSW 20 32 11 17 1024.0 - -
01/03:30pm 18.1 10.3 -3.9 22 8.8 SW 28 35 15 19 1024.0 - -
01/03:00pm 18.0 11.4 -3.7 22 8.7 SW 22 37 12 20 1024.1 1024.0 0.0
01/02:30pm 17.5 11.2 -4.3 22 8.6 SSW 20 32 11 17 1024.4 - -
01/02:00pm 17.4 11.4 -3.2 24 8.3 SW 19 32 10 17 1024.4 - -
01/01:30pm 16.7 10.1 -2.9 26 7.9 SW 22 32 12 17 1024.8 - -
01/01:00pm 17.4 10.5 -2.3 26 8.1 WSW 24 35 13 19 1025.0 - -
01/12:30pm 16.8 10.9 -1.9 28 7.7 SSW 19 28 10 15 1025.5 - -
01/12:00pm 15.7 10.2 -2.0 29 7.2 S 17 30 9 16 1025.7 1025.6 -
01/11:30am 15.7 10.6 -1.7 30 7.2 S 15 24 8 13 1025.9 - 0.0
01/11:00am 15.2 9.6 -3.0 28 7.2 S 17 30 9 16 1026.1 - 0.0
01/10:30am 14.5 9.5 -1.2 34 6.4 SSW 15 28 8 15 1026.1 - 0.0
01/10:00am 13.9 8.9 -1.5 34 6.2 SSW 15 26 8 14 1026.1 - 0.0
01/09:30am 12.7 7.1 -0.2 41 5.3 SSW 19 26 10 14 1026.0 - 0.0
01/09:00am 11.8 6.6 0.1 44 4.8 SSW 17 24 9 13 1025.9 1025.9 0.0
01/08:30am 11.0 6.0 1.4 51 4.0 SW 17 22 9 12 1025.5 - 0.0
01/08:00am 8.6 3.9 2.9 67 2.4 SW 17 22 9 12 1025.1 - 0.0
01/07:30am 6.8 2.1 3.2 78 1.5 SW 17 22 9 12 1024.8 - 0.0
01/07:00am 5.2 1.3 3.3 87 0.8 SW 13 19 7 10 1024.3 - 0.0
01/06:30am 3.0 -0.8 1.7 91 0.5 WSW 11 15 6 8 1023.9 - 0.0
01/06:00am 3.1 -0.3 1.8 91 0.5 WSW 9 13 5 7 1023.5 1023.5 0.0
01/05:30am 1.9 -2.5 0.6 91 0.5 WSW 13 15 7 8 1023.0 - 0.0
01/05:00am 2.3 -1.6 1.2 92 0.4 W 11 13 6 7 1022.4 - 0.0
01/04:30am 2.7 -1.5 1.4 91 0.5 WSW 13 15 7 8 1022.0 - 0.0
01/04:00am 3.7 -0.4 2.2 90 0.6 WSW 13 15 7 8 1021.6 - 0.0
01/03:30am 4.6 0.2 2.6 87 0.8 WSW 15 17 8 9 1021.1 - 0.0
01/03:00am 4.5 0.1 2.5 87 0.8 W 15 17 8 9 1020.9 1020.9 0.0
01/02:30am 3.6 -0.6 1.8 88 0.7 W 13 15 7 8 1020.7 - 0.0
01/02:00am 4.2 0.1 2.2 87 0.8 WSW 13 15 7 8 1020.4 - 0.0
01/01:30am 4.8 1.1 2.3 84 1.0 WSW 11 13 6 7 1020.3 - 0.0
01/01:00am 5.5 1.5 2.8 83 1.1 WSW 13 15 7 8 1020.2 - 0.0
01/12:30am 7.4 3.0 2.9 73 1.9 WSW 15 17 8 9 1020.1 - 0.0
01/12:00am 8.8 3.6 2.4 64 2.7 WSW 19 22 10 12 1019.8 1019.8 0.0
 
Date/Time
EST
Temp
°C
App
Temp
°C
Dew
Point
Rel
Hum
%
Delta-T
°C
Wind Press
QNH
hPa
Press
MSL
hPa
Rain
since 9 am
mm
Dir
 
Spd
km/h
Gust
km/h
Spd
kts
Gust
kts
30/11:30pm 9.2 3.9 1.7 59 3.1 WSW 19 24 10 13 1019.3 - 0.0
30/11:00pm 9.5 4.9 1.5 57 3.3 WSW 15 22 8 12 1018.9 - 0.0
30/10:30pm 10.8 4.8 0.9 50 4.1 WSW 22 32 12 17 1018.5 - 0.0
30/10:00pm 11.4 5.3 0.5 47 4.5 WSW 22 30 12 16 1018.1 - 0.0
30/09:30pm 12.0 5.4 -0.2 43 5.0 WSW 24 33 13 18 1017.5 - 0.0
30/09:00pm 12.8 5.1 -0.3 40 5.4 WSW 30 44 16 24 1017.1 1017.2 0.0
30/08:30pm 14.0 5.3 -0.8 36 6.1 WSW 35 54 19 29 1016.4 - 0.0
30/08:02pm 15.0 6.1 0.5 37 6.2 SW 37 61 20 33 1015.9 - 0.0
30/08:00pm 14.9 6.6 2.0 41 5.7 SW 35 46 19 25 1015.8 - 0.0
30/07:30pm 14.5 6.8 3.2 46 5.1 WSW 33 44 18 24 1015.0 - 0.0
30/07:00pm 15.0 5.8 1.5 40 5.9 WSW 39 54 21 29 1014.2 - 0.0
30/06:30pm 15.4 5.2 3.1 43 5.6 WSW 46 67 25 36 1013.5 - 0.0
30/06:00pm 15.5 6.3 6.2 54 4.5 SW 44 67 24 36 1012.8 1012.8 0.0
30/05:30pm 16.9 7.4 6.8 51 5.0 SW 46 70 25 38 1012.1 - 0.0
30/05:00pm 20.3 9.8 5.6 38 7.3 WSW 50 69 27 37 1010.8 - 0.0
30/04:30pm 21.8 10.1 6.0 35 8.0 WSW 57 80 31 43 1009.8 - 0.0
30/04:00pm 24.7 10.7 -0.4 19 11.5 W 63 83 34 45 1008.8 - 0.0
30/03:30pm 26.4 12.7 -3.9 13 13.2 W 59 78 32 42 1008.2 - 0.0
30/03:00pm 25.7 12.4 -1.0 17 12.2 W 59 83 32 45 1008.0 1007.8 0.0
30/02:30pm 27.1 14.1 -1.6 15 13.1 WNW 57 76 31 41 1007.8 - 0.0
30/02:00pm 27.1 15.1 -0.7 16 12.9 WNW 52 76 28 41 1008.3 - 0.0
30/01:30pm 26.8 14.4 1.5 19 12.2 WNW 56 82 30 44 1008.9 - 0.0
30/01:00pm 25.7 13.0 1.0 20 11.7 WNW 57 83 31 45 1009.2 - 0.0
30/12:30pm 25.8 13.8 1.6 20 11.6 WNW 54 72 29 39 1009.6 - 0.0
30/12:05pm 25.3 14.8 1.6 21 11.3 WNW 46 65 25 35 1009.9 - 0.0
30/12:00pm 25.4 15.1 2.6 22 11.1 WNW 46 63 25 34 1010.1 1010.1 0.0
30/11:30am 24.3 15.2 2.1 23 10.6 NW 39 57 21 31 1010.8 - 0.0
30/11:22am 23.7 15.0 1.7 23 10.4 NW 37 57 20 31 1010.6 - 0.0
30/11:00am 24.4 16.9 3.4 25 10.3 NW 32 48 17 26 1010.9 - 0.0
30/10:30am 22.0 14.7 4.5 32 8.6 NNW 32 43 17 23 1011.8 - 0.0
30/10:00am 21.9 16.8 5.8 35 8.1 NNW 22 32 12 17 1012.3 - 0.0
30/09:30am 19.7 15.3 7.6 45 6.2 N 20 26 11 14 1012.6 - 0.0
30/09:00am 18.1 14.6 8.7 54 4.9 N 17 20 9 11 1012.9 1012.8 0.0
30/08:30am 16.3 13.3 9.4 63 3.6 N 15 20 8 11 1013.0 - 0.0
30/08:00am 14.2 12.1 9.8 75 2.3 WNW 11 13 6 7 1013.4 - 0.0
30/07:30am 11.4 9.9 9.0 85 1.2 WNW 7 9 4 5 1013.5 - 0.0
30/07:00am 8.0 5.9 6.7 91 0.6 WNW 7 7 4 4 1013.5 - 0.0
30/06:30am 6.4 4.2 5.3 93 0.5 WNW 6 7 3 4 1013.0 - 0.0
30/06:00am 6.5 4.2 5.6 94 0.4 WNW 7 9 4 5 1012.9 1012.9 0.0
30/05:30am 6.8 4.5 5.7 93 0.5 WNW 7 9 4 5 1012.7 - 0.0
30/05:00am 7.3 5.2 6.0 91 0.6 WNW 6 7 3 4 1012.6 - 0.0
30/04:30am 7.0 4.7 5.7 91 0.6 WNW 7 9 4 5 1012.5 - 0.0
30/04:00am 7.7 5.6 5.9 88 0.8 WNW 6 6 3 3 1012.5 - 0.0
30/03:30am 8.7 7.1 6.5 86 1.0 WNW 4 7 2 4 1012.5 - 0.0
30/03:00am 8.8 7.9 6.2 84 1.2 CALM 0 6 0 3 1012.6 1012.6 0.0
30/02:30am 8.6 5.9 5.5 81 1.4 WNW 9 11 5 6 1012.6 - 0.0
30/02:00am 9.1 6.1 5.8 80 1.5 WNW 11 13 6 7 1012.5 - 0.0
30/01:30am 10.6 7.6 6.1 74 2.1 WNW 11 13 6 7 1012.6 - 0.0
30/01:00am 9.7 6.1 6.7 81 1.4 W 15 24 8 13 1012.7 - 0.0
30/12:30am 9.4 7.8 6.4 81 1.4 NW 4 7 2 4 1012.4 - 0.0
30/12:00am 10.3 8.9 7.4 82 1.4 NW 4 7 2 4 1012.6 1012.6 0.0
 
Date/Time
EST
Temp
°C
App
Temp
°C
Dew
Point
Rel
Hum
%
Delta-T
°C
Wind Press
QNH
hPa
Press
MSL
hPa
Rain
since 9 am
mm
Dir
 
Spd
km/h
Gust
km/h
Spd
kts
Gust
kts
29/11:30pm 10.2 8.7 6.8 79 1.6 NW 4 7 2 4 1013.0 - 0.0
29/11:00pm 11.6 9.8 8.1 79 1.7 NW 7 7 4 4 1013.1 - 0.0
29/10:30pm 11.8 10.0 7.9 77 1.9 NW 7 7 4 4 1013.3 - 0.0
29/10:00pm 12.3 10.2 6.7 68 2.7 NW 7 9 4 5 1013.4 - 0.0
29/09:30pm 12.8 10.9 7.5 70 2.6 NW 7 7 4 4 1013.6 - 0.0
29/09:00pm 13.4 11.4 7.3 66 3.0 NW 7 7 4 4 1013.6 1013.6 0.0
29/08:30pm 14.0 12.2 8.0 67 3.0 NW 7 9 4 5 1013.5 - 0.0

Other Formats:

Comma delimited format used in spreadsheet applications
http://www.bom.gov.au/fwo/IDN60801/IDN60801.94843.axf

JavaScript Object Notation format (JSON) in row-major order
http://www.bom.gov.au/fwo/IDN60801/IDN60801.94843.json